Accueil
METAR-TAF:

METAR-TAF

Aéroports :

Futuna, France

Aérodrome de Futuna Pointe Vele

latitude: 14-19S, longitude: 178-07W, altitude: 6 m

METAR: absent

Heure: 21:44 (09:44 UTC)

Prévision

Le bulletin a été fait il y a 4 heures et 44 minutes, à 05:00 UTC
Prévision valable du 24 à 06 UTC au 25 à 06 UTC
Vent 12 kt de nord/nord-est
Visibilité 10 km ou plus
Nuages fragmentés à une hauteur de 2000 ft
Nuages fragmentés à une hauteur de 3500 ft
Temporairement
du 24 à 06 UTC au 25 à 06 UTC
Visibilité: 4000 m
Nuages épars à une hauteur de 1500 ft, Cumulus congestus.
averses de pluie
Probabilité 40% :
Temporairement
du 24 à 06 UTC au 25 à 06 UTC
Vent 15 kt de direction variable avec des rafales jusqu'à 25 kt
Visibilité: 2000 m
Nuages fragmentés à une hauteur de 1000 ft, Cumulonimbus.
orage, pluie

TAF: NLWF 240500Z 2406/2506 02012KT 9999 BKN020 BKN035 TEMPO 2406/2506 4000 SHRA SCT015TCU PROB40 TEMPO 2406/2506 VRB15G25KT 2000 TSRA BKN010CB

Observations et prévisions météorologiques de plus de 4000 aéroports (messages METAR et TAF).

Les stations disponibles sont représentées par des disques jaunes et rouges sur la carte.

Passer la souris dessus pour voir le nom de la station.

Cliquer dessus pour voir les observations et prévisions météorologiques.

Pour changer de carte: cliquez sur les boutons verts avec une croix noire pour zoomer, sur le bouton vert avec un tiret pour effectuer un zoom arrière, ou sur les flèches vertes pour les cartes adjacentes.


METAR-TAF: